Time;durP1;ratioP1;P1;durP2;ratioP2;P2;SDS_P1;SDS_P2;PMS_P1;PMS_P2;Temp;Humidity;BMP_temperature;BMP_pressure;BME280_temperature;BME280_humidity;BME280_pressure;Samples;Min_cycle;Max_cycle;Signal;HPM_P1;HPM_P2
2022/08/03 00:01:34;;;;;;;4.40;2.70;;;25.80;56.30;;;;;;221267;1262;22868;-54
2022/08/03 00:06:41;;;;;;;3.90;2.30;;;25.80;56.30;;;;;;221623;1263;24205;-60
2022/08/03 00:11:47;;;;;;;3.20;2.30;;;25.80;56.30;;;;;;221251;1262;25395;-57
2022/08/03 00:16:54;;;;;;;3.20;2.50;;;25.80;56.20;;;;;;221241;1262;22597;-58
2022/08/03 00:21:57;;;;;;;3.00;2.20;;;25.80;56.50;;;;;;220764;1265;22528;-60
2022/08/03 00:27:00;;;;;;;3.60;2.50;;;25.80;56.40;;;;;;221267;1265;22528;-58
2022/08/03 00:32:05;;;;;;;5.90;2.80;;;25.70;56.40;;;;;;220645;1265;24286;-59
2022/08/03 00:37:16;;;;;;;3.10;2.40;;;25.70;56.40;;;;;;221252;1265;25345;-57
2022/08/03 00:42:19;;;;;;;3.00;2.30;;;25.70;56.70;;;;;;221457;1262;22541;-58
2022/08/03 00:47:22;;;;;;;3.50;2.40;;;25.70;56.40;;;;;;221215;1262;25046;-57
2022/08/03 00:52:25;;;;;;;3.80;2.40;;;25.70;56.50;;;;;;221098;1261;23579;-58
2022/08/03 00:57:32;;;;;;;4.20;2.50;;;25.70;56.80;;;;;;221390;1262;25386;-57
2022/08/03 01:02:36;;;;;;;3.00;2.30;;;25.70;56.50;;;;;;221103;1261;24281;-56
2022/08/03 01:08:07;;;;;;;4.20;2.70;;;25.70;56.50;;;;;;221229;1265;22563;-56
2022/08/03 01:13:30;;;;;;;3.10;2.20;;;25.70;56.50;;;;;;221283;1265;22541;-57
2022/08/03 01:19:11;;;;;;;4.30;2.40;;;25.70;56.60;;;;;;221227;1265;24360;-56
2022/08/03 01:24:26;;;;;;;3.30;2.60;;;25.70;56.50;;;;;;221257;1265;24289;-58
2022/08/03 01:29:48;;;;;;;3.20;2.50;;;25.70;56.50;;;;;;221163;1265;24241;-57
2022/08/03 01:34:58;;;;;;;3.50;2.30;;;25.70;56.80;;;;;;221292;1266;23041;-57
2022/08/03 01:40:02;;;;;;;3.90;2.60;;;25.70;56.50;;;;;;221595;1267;22544;-58
2022/08/03 01:45:07;;;;;;;3.30;2.30;;;25.70;56.50;;;;;;221211;1265;22587;-58
2022/08/03 01:50:12;;;;;;;3.50;2.50;;;25.70;56.60;;;;;;221455;1265;22552;-56
2022/08/03 01:55:18;;;;;;;3.50;2.40;;;25.60;56.50;;;;;;220546;1265;25443;-58
2022/08/03 02:00:21;;;;;;;3.00;2.30;;;25.60;56.80;;;;;;221315;1265;24211;-58
2022/08/03 02:05:26;;;;;;;3.80;2.40;;;25.60;56.50;;;;;;221156;1264;22878;-56
2022/08/03 02:10:29;;;;;;;3.70;2.40;;;25.60;56.80;;;;;;221104;1265;22906;-60
2022/08/03 02:15:38;;;;;;;3.30;2.40;;;25.60;56.50;;;;;;221100;1265;22528;-57
2022/08/03 02:20:42;;;;;;;4.90;2.70;;;25.60;56.50;;;;;;221052;1265;22538;-56
2022/08/03 02:25:52;;;;;;;4.10;2.50;;;25.60;56.50;;;;;;221097;1265;24243;-58
2022/08/03 02:30:56;;;;;;;3.20;2.40;;;25.60;56.50;;;;;;221007;1265;25247;-57
2022/08/03 02:35:59;;;;;;;3.20;2.40;;;25.60;56.50;;;;;;221169;1265;24230;-57
2022/08/03 02:41:07;;;;;;;2.90;2.20;;;25.50;56.40;;;;;;220806;1265;22489;-57
2022/08/03 02:46:13;;;;;;;3.70;2.30;;;25.60;56.60;;;;;;221078;1265;24356;-57
2022/08/03 02:51:19;;;;;;;6.50;2.60;;;25.50;56.40;;;;;;221352;1265;24287;-57
2022/08/03 02:56:24;;;;;;;4.00;2.70;;;25.50;56.40;;;;;;221533;1265;22544;-56
2022/08/03 03:01:28;;;;;;;3.60;2.40;;;25.50;56.50;;;;;;221407;1265;22556;-57
2022/08/03 03:06:31;;;;;;;3.20;2.30;;;25.50;56.50;;;;;;221332;1265;25232;-57
2022/08/03 03:11:37;;;;;;;2.70;2.10;;;25.50;56.40;;;;;;221415;1265;25416;-58
2022/08/03 03:16:40;;;;;;;2.60;2.20;;;25.50;56.70;;;;;;221256;1265;22557;-57
2022/08/03 03:21:44;;;;;;;2.90;2.30;;;25.50;56.50;;;;;;221428;1265;25251;-58
2022/08/03 03:26:47;;;;;;;3.90;2.50;;;25.50;56.50;;;;;;221163;1265;22673;-58
2022/08/03 03:31:50;;;;;;;3.10;2.20;;;25.50;56.50;;;;;;221269;1265;22574;-58
2022/08/03 03:36:52;;;;;;;3.70;2.60;;;25.40;56.40;;;;;;221505;1265;22694;-58
2022/08/03 03:41:54;;;;;;;3.00;2.30;;;25.50;56.40;;;;;;221457;1265;22528;-56
2022/08/03 03:46:57;;;;;;;3.30;2.50;;;25.50;56.40;;;;;;221488;1265;22535;-60
2022/08/03 03:51:59;;;;;;;2.90;2.30;;;25.50;56.40;;;;;;221299;1265;25327;-57
2022/08/03 03:57:02;;;;;;;2.90;2.30;;;25.50;56.80;;;;;;221357;1264;25387;-57
2022/08/03 04:02:07;;;;;;;2.90;2.40;;;25.40;56.70;;;;;;221309;1265;25346;-57
2022/08/03 04:12:31;;;;;;;2.90;2.30;;;25.40;56.40;;;;;;221135;1265;22554;-58
2022/08/03 04:17:35;;;;;;;3.60;2.80;;;25.40;56.40;;;;;;221030;1265;24324;-57
2022/08/03 04:22:38;;;;;;;2.90;2.40;;;25.40;56.40;;;;;;221545;1265;22556;-57
2022/08/03 04:27:41;;;;;;;2.80;2.30;;;25.40;56.50;;;;;;221422;1265;25340;-57
2022/08/03 04:32:49;;;;;;;3.00;2.50;;;25.40;56.80;;;;;;221402;1265;22567;-56
2022/08/03 04:37:54;;;;;;;3.10;2.30;;;25.40;56.40;;;;;;221208;1265;24287;-57
2022/08/03 04:42:58;;;;;;;3.50;2.30;;;25.40;56.40;;;;;;220996;1265;25325;-58
2022/08/03 04:48:01;;;;;;;3.00;2.40;;;25.40;56.40;;;;;;221017;1265;25369;-55
2022/08/03 04:53:06;;;;;;;3.30;2.40;;;25.40;56.40;;;;;;220873;1265;481401;-57
2022/08/03 04:58:08;;;;;;;3.10;2.30;;;25.40;56.40;;;;;;221284;1265;26490;-58
2022/08/03 05:03:10;;;;;;;4.20;2.30;;;25.40;57.10;;;;;;220931;1265;22552;-59
2022/08/03 05:08:26;;;;;;;3.60;2.50;;;25.40;56.40;;;;;;221371;1265;25318;-57
2022/08/03 05:13:29;;;;;;;3.00;2.30;;;25.40;56.40;;;;;;221400;1265;25232;-54
2022/08/03 05:18:32;;;;;;;2.90;2.20;;;25.40;56.40;;;;;;221511;1265;22649;-57
2022/08/03 05:23:34;;;;;;;3.30;2.50;;;25.40;56.70;;;;;;221313;1265;22682;-57
2022/08/03 05:28:37;;;;;;;3.50;2.40;;;25.40;56.40;;;;;;221066;1265;22698;-60
2022/08/03 05:33:39;;;;;;;3.30;2.40;;;25.40;56.50;;;;;;221442;1265;25304;-57
2022/08/03 05:38:42;;;;;;;2.70;2.10;;;25.40;56.70;;;;;;221200;1265;22547;-57
2022/08/03 05:43:44;;;;;;;3.20;2.40;;;25.40;56.40;;;;;;221217;1261;22552;-56
2022/08/03 05:48:47;;;;;;;3.00;2.10;;;25.40;56.30;;;;;;221261;1262;22710;-55
2022/08/03 05:53:49;;;;;;;3.10;2.40;;;25.40;56.40;;;;;;221131;1262;25311;-56
2022/08/03 05:58:52;;;;;;;2.80;2.40;;;25.40;56.30;;;;;;221327;1265;23913;-58
2022/08/03 06:03:54;;;;;;;3.30;2.40;;;25.40;56.60;;;;;;221362;1265;25235;-56
2022/08/03 06:08:56;;;;;;;2.90;2.30;;;25.40;56.90;;;;;;221268;1265;23321;-57
2022/08/03 06:13:58;;;;;;;3.50;2.40;;;25.40;56.30;;;;;;221465;1265;22629;-57
2022/08/03 06:19:01;;;;;;;3.50;2.70;;;25.40;56.30;;;;;;221058;1261;24223;-57
2022/08/03 06:24:03;;;;;;;2.70;2.20;;;25.40;56.30;;;;;;221506;1262;25243;-58
2022/08/03 06:29:07;;;;;;;4.20;2.40;;;25.50;56.30;;;;;;221628;1262;22679;-58
2022/08/03 06:34:11;;;;;;;2.90;2.30;;;25.50;56.30;;;;;;221425;1262;22547;-58
2022/08/03 06:39:33;;;;;;;2.90;2.50;;;25.50;56.30;;;;;;221542;1262;25310;-57
2022/08/03 06:44:37;;;;;;;3.50;2.40;;;25.50;56.60;;;;;;221523;1262;22533;-58
2022/08/03 06:49:40;;;;;;;4.50;2.60;;;25.50;56.80;;;;;;221503;1262;22543;-59
2022/08/03 06:54:42;;;;;;;2.90;2.30;;;25.50;56.30;;;;;;221230;1262;23924;-56
2022/08/03 06:59:45;;;;;;;3.60;2.60;;;25.50;56.60;;;;;;221325;1262;25248;-57
2022/08/03 07:05:09;;;;;;;4.20;2.40;;;25.60;56.40;;;;;;221109;1265;22698;-58
2022/08/03 07:10:11;;;;;;;2.90;2.30;;;25.60;56.50;;;;;;221112;1265;22545;-59
2022/08/03 07:15:13;;;;;;;3.50;2.40;;;25.60;56.40;;;;;;221140;1265;22613;-56
2022/08/03 07:20:22;;;;;;;3.20;2.40;;;25.60;56.30;;;;;;221183;1265;24443;-58
2022/08/03 07:25:25;;;;;;;3.40;2.30;;;25.60;56.20;;;;;;221489;1265;26490;-58
2022/08/03 07:30:27;;;;;;;3.30;2.70;;;25.70;55.90;;;;;;221175;1265;23895;-56
2022/08/03 07:35:29;;;;;;;2.80;2.20;;;25.70;56.50;;;;;;221304;1265;22529;-58
2022/08/03 07:40:33;;;;;;;2.70;2.20;;;25.60;56.30;;;;;;221435;1265;25844;-58
2022/08/03 07:45:37;;;;;;;3.20;2.20;;;25.60;56.40;;;;;;221285;1265;24302;-56
2022/08/03 07:50:39;;;;;;;3.90;2.10;;;25.70;56.10;;;;;;221235;1264;22586;-55
2022/08/03 07:55:41;;;;;;;2.70;2.40;;;25.70;56.20;;;;;;221174;1265;23932;-57
2022/08/03 08:00:44;;;;;;;3.00;2.20;;;25.70;56.50;;;;;;220787;1265;22687;-55
2022/08/03 08:05:46;;;;;;;7.20;2.70;;;25.70;56.40;;;;;;220759;1265;22538;-57
2022/08/03 08:10:49;;;;;;;3.70;2.80;;;25.70;56.70;;;;;;220881;1265;22534;-57
2022/08/03 08:16:00;;;;;;;2.70;2.20;;;25.80;56.50;;;;;;220809;1264;22712;-56
2022/08/03 08:21:02;;;;;;;3.40;2.30;;;25.80;56.40;;;;;;221035;1265;24095;-56
2022/08/03 08:26:05;;;;;;;3.00;2.40;;;25.80;56.80;;;;;;221165;1265;25284;-57
2022/08/03 08:31:07;;;;;;;3.50;2.70;;;25.80;56.60;;;;;;221226;1265;22736;-57
2022/08/03 08:36:10;;;;;;;3.00;2.30;;;25.80;56.50;;;;;;221063;1265;22531;-56
2022/08/03 08:41:16;;;;;;;2.60;2.10;;;25.90;56.70;;;;;;221316;1265;24281;-58
2022/08/03 08:46:19;;;;;;;2.70;2.20;;;25.90;56.60;;;;;;221070;1261;25306;-56
2022/08/03 08:51:37;;;;;;;3.40;2.70;;;25.90;56.90;;;;;;221417;1262;22700;-54
2022/08/03 08:57:02;;;;;;;3.00;1.90;;;25.90;56.60;;;;;;221208;1262;22532;-57
2022/08/03 09:02:18;;;;;;;3.40;2.10;;;26.00;56.60;;;;;;221338;1262;25310;-55
2022/08/03 09:07:26;;;;;;;2.30;2.10;;;26.00;56.90;;;;;;221393;1262;22595;-56
2022/08/03 09:12:29;;;;;;;3.80;2.30;;;25.90;56.50;;;;;;221163;1265;25150;-55
2022/08/03 09:17:44;;;;;;;2.60;2.20;;;26.00;56.90;;;;;;220973;1265;22579;-52
2022/08/03 09:22:55;;;;;;;2.90;2.30;;;26.00;56.60;;;;;;221296;1265;22735;-57
2022/08/03 09:28:24;;;;;;;2.50;2.10;;;26.00;56.50;;;;;;220812;1265;23129;-55
2022/08/03 09:33:47;;;;;;;3.70;2.50;;;26.00;56.60;;;;;;221159;1262;22615;-56
2022/08/03 09:39:05;;;;;;;3.20;2.40;;;26.00;56.40;;;;;;221324;1262;25359;-57
2022/08/03 09:44:08;;;;;;;2.90;2.20;;;26.10;56.50;;;;;;221332;1262;22537;-56
2022/08/03 09:49:26;;;;;;;2.70;2.20;;;26.10;56.50;;;;;;221102;1261;24346;-57
2022/08/03 09:54:30;;;;;;;3.30;2.30;;;26.10;56.50;;;;;;221023;1261;24621;-54
2022/08/03 09:59:33;;;;;;;2.90;2.10;;;26.20;56.50;;;;;;221336;1262;22532;-54
2022/08/03 10:04:46;;;;;;;2.80;2.20;;;26.20;56.50;;;;;;221369;1262;25327;-54
2022/08/03 10:10:00;;;;;;;3.70;2.10;;;26.20;56.50;;;;;;221356;1262;26473;-55
2022/08/03 10:15:22;;;;;;;2.90;2.40;;;26.20;56.30;;;;;;221316;1262;25234;-56
2022/08/03 10:20:52;;;;;;;2.30;1.90;;;26.30;56.40;;;;;;221184;1261;22555;-55
2022/08/03 10:26:01;;;;;;;2.90;2.20;;;26.30;56.40;;;;;;221392;1262;25255;-55
2022/08/03 10:31:08;;;;;;;3.00;2.30;;;26.30;56.30;;;;;;221153;1262;22570;-54
2022/08/03 10:36:13;;;;;;;2.80;2.30;;;26.30;56.40;;;;;;221174;1262;22563;-56
2022/08/03 10:41:19;;;;;;;2.50;2.00;;;26.40;56.30;;;;;;221078;1262;23146;-54
2022/08/03 10:46:21;;;;;;;3.90;2.00;;;26.40;56.20;;;;;;221468;1262;25198;-54
2022/08/03 10:51:29;;;;;;;2.90;2.20;;;26.40;56.20;;;;;;221361;1262;22827;-56
2022/08/03 11:01:55;;;;;;;2.60;2.10;;;26.50;56.30;;;;;;221417;1262;22656;-54
2022/08/03 11:07:20;;;;;;;3.00;1.90;;;26.50;56.20;;;;;;221288;1262;22553;-55
2022/08/03 11:12:29;;;;;;;2.90;2.00;;;26.50;56.20;;;;;;221049;1261;23027;-55
2022/08/03 11:17:35;;;;;;;3.40;2.40;;;26.60;56.30;;;;;;221141;1262;22546;-55
2022/08/03 11:22:59;;;;;;;2.50;2.00;;;26.60;56.10;;;;;;220938;1265;24293;-55
2022/08/03 11:28:25;;;;;;;2.80;2.20;;;26.70;56.10;;;;;;221145;1265;22535;-54
2022/08/03 11:33:29;;;;;;;2.30;2.00;;;26.70;56.10;;;;;;221280;1265;25426;-54
2022/08/03 11:38:32;;;;;;;2.50;2.00;;;26.70;56.40;;;;;;221155;1265;24406;-56
2022/08/03 11:43:36;;;;;;;3.40;2.00;;;26.70;56.00;;;;;;220966;1265;24358;-57
2022/08/03 11:48:43;;;;;;;2.20;1.80;;;26.80;55.90;;;;;;221140;1265;22724;-55
2022/08/03 11:53:48;;;;;;;2.80;2.10;;;26.90;56.10;;;;;;221180;1265;24348;-53
2022/08/03 11:58:53;;;;;;;3.00;2.30;;;26.80;56.00;;;;;;221266;1265;22534;-52
2022/08/03 12:04:15;;;;;;;2.50;2.00;;;26.90;56.00;;;;;;221235;1261;22563;-53
2022/08/03 12:09:18;;;;;;;2.50;2.10;;;26.90;56.00;;;;;;221212;1262;25248;-57
2022/08/03 12:14:22;;;;;;;3.10;2.30;;;26.90;56.10;;;;;;221272;1262;26484;-55
2022/08/03 12:19:45;;;;;;;2.80;1.90;;;26.90;55.60;;;;;;221356;1262;23523;-54
2022/08/03 12:24:48;;;;;;;2.50;2.10;;;26.90;55.90;;;;;;221336;1262;25489;-54
2022/08/03 12:29:53;;;;;;;2.70;2.00;;;27.00;55.90;;;;;;221279;1262;25310;-55
2022/08/03 12:35:03;;;;;;;3.20;2.30;;;26.50;54.60;;;;;;221121;1262;24260;-56
2022/08/03 12:40:06;;;;;;;2.80;2.00;;;26.10;53.50;;;;;;221159;1262;23151;-55
2022/08/03 12:45:19;;;;;;;3.30;2.00;;;26.10;54.10;;;;;;221121;1262;24401;-56
2022/08/03 12:50:27;;;;;;;3.10;2.00;;;26.20;55.60;;;;;;221334;1262;25411;-55
2022/08/03 12:55:34;;;;;;;2.40;1.90;;;26.20;58.70;;;;;;221117;1262;22547;-55
2022/08/03 13:00:56;;;;;;;2.70;1.90;;;26.10;58.70;;;;;;220865;1265;23149;-54
2022/08/03 13:05:59;;;;;;;2.40;1.70;;;26.00;58.80;;;;;;221292;1262;25313;-55
2022/08/03 13:11:19;;;;;;;2.40;2.10;;;26.00;58.50;;;;;;221616;1262;22801;-54
2022/08/03 13:16:21;;;;;;;2.70;1.90;;;26.00;55.90;;;;;;221343;1262;24472;-54
2022/08/03 13:21:24;;;;;;;2.50;2.10;;;26.40;55.70;;;;;;221478;1262;22535;-56
2022/08/03 13:26:27;;;;;;;2.50;2.10;;;26.50;55.30;;;;;;221107;1263;25646;-55
2022/08/03 13:31:30;;;;;;;2.40;2.10;;;26.60;55.10;;;;;;221554;1262;25243;-55
2022/08/03 13:36:33;;;;;;;2.30;2.00;;;26.70;55.20;;;;;;221609;1261;22541;-54
2022/08/03 13:41:55;;;;;;;2.40;1.90;;;26.70;55.20;;;;;;221332;1261;22524;-55
2022/08/03 13:46:59;;;;;;;2.60;2.10;;;26.80;55.30;;;;;;221464;1261;24300;-55
2022/08/03 13:52:01;;;;;;;2.70;2.10;;;26.90;55.40;;;;;;221408;1262;22543;-55
2022/08/03 13:57:04;;;;;;;3.30;2.60;;;26.90;55.40;;;;;;221280;1262;22540;-56
2022/08/03 14:02:26;;;;;;;2.50;2.10;;;26.80;55.20;;;;;;221158;1265;24411;-56
2022/08/03 14:07:28;;;;;;;2.60;2.00;;;26.90;55.20;;;;;;221543;1262;22614;-55
2022/08/03 14:12:31;;;;;;;2.50;2.00;;;26.90;55.40;;;;;;221526;1262;22546;-57
2022/08/03 14:17:36;;;;;;;2.50;1.90;;;26.90;55.30;;;;;;221567;1262;22706;-55
2022/08/03 14:22:54;;;;;;;2.90;2.10;;;26.90;55.40;;;;;;221506;1262;24205;-57
2022/08/03 14:27:57;;;;;;;2.90;2.10;;;26.90;55.70;;;;;;221853;1261;22535;-51
2022/08/03 14:33:07;;;;;;;2.30;1.90;;;26.90;55.40;;;;;;221394;1262;24172;-55
2022/08/03 14:38:10;;;;;;;3.00;2.00;;;27.00;55.80;;;;;;221407;1262;27600;-56
2022/08/03 14:43:13;;;;;;;2.60;2.20;;;27.00;55.30;;;;;;221467;1262;25244;-55
2022/08/03 14:48:15;;;;;;;2.20;1.90;;;27.00;55.50;;;;;;221179;1262;22900;-68
2022/08/03 14:53:38;;;;;;;2.40;2.10;;;27.00;56.10;;;;;;221242;1263;22556;-56
2022/08/03 14:58:40;;;;;;;2.40;1.90;;;26.80;54.60;;;;;;221443;1262;22541;-60
2022/08/03 15:03:45;;;;;;;2.90;2.00;;;26.40;53.20;;;;;;221596;1262;25235;-56
2022/08/03 15:08:48;;;;;;;2.80;2.10;;;26.30;58.00;;;;;;221607;1262;25279;-54
2022/08/03 15:14:11;;;;;;;2.80;2.10;;;26.20;56.90;;;;;;221410;1262;22525;-58
2022/08/03 15:19:16;;;;;;;2.30;2.00;;;26.50;54.70;;;;;;221497;1261;22528;-54
2022/08/03 15:24:38;;;;;;;2.80;2.00;;;26.70;54.10;;;;;;221608;1262;22708;-55
2022/08/03 15:29:43;;;;;;;2.30;2.00;;;26.80;54.30;;;;;;221447;1262;22540;-58
2022/08/03 15:35:07;;;;;;;3.00;2.10;;;26.80;54.10;;;;;;221074;1262;22553;-56
2022/08/03 15:40:10;;;;;;;2.80;1.90;;;26.90;54.20;;;;;;221481;1262;22532;-53
2022/08/03 15:45:12;;;;;;;2.60;2.00;;;26.90;54.30;;;;;;221257;1262;24214;-53
2022/08/03 15:50:19;;;;;;;4.10;2.30;;;26.90;54.40;;;;;;221054;1263;22551;-50
2022/08/03 15:55:22;;;;;;;4.60;2.50;;;26.90;54.50;;;;;;221280;1262;22538;-57
2022/08/03 16:00:25;;;;;;;2.20;1.80;;;26.90;54.90;;;;;;221086;1265;24296;-52
2022/08/03 16:05:35;;;;;;;2.10;1.80;;;26.90;54.60;;;;;;220961;1265;22540;-59
2022/08/03 16:10:39;;;;;;;2.20;1.80;;;26.90;54.70;;;;;;221374;1262;23929;-60
2022/08/03 16:15:43;;;;;;;3.30;2.00;;;26.90;55.00;;;;;;221306;1262;24266;-60
2022/08/03 16:20:59;;;;;;;2.40;2.00;;;26.90;54.70;;;;;;221105;1265;22593;-60
2022/08/03 16:26:03;;;;;;;2.30;1.90;;;26.90;54.70;;;;;;221205;1265;24564;-60
2022/08/03 16:31:13;;;;;;;2.50;1.90;;;26.90;54.60;;;;;;221401;1265;24293;-60
2022/08/03 16:36:17;;;;;;;2.20;1.80;;;26.90;54.90;;;;;;221439;1262;24293;-61
2022/08/03 16:41:19;;;;;;;2.90;1.90;;;26.90;55.00;;;;;;221220;1262;22736;-59
2022/08/03 16:46:22;;;;;;;2.50;2.00;;;26.90;55.00;;;;;;221290;1262;25921;-60
2022/08/03 16:51:24;;;;;;;2.20;1.80;;;27.00;55.50;;;;;;221171;1262;25406;-59
2022/08/03 16:56:42;;;;;;;2.20;1.90;;;27.00;55.60;;;;;;221154;1262;24220;-58
2022/08/03 17:01:46;;;;;;;4.30;1.90;;;27.00;55.10;;;;;;221550;1262;24283;-60
2022/08/03 17:06:49;;;;;;;2.10;1.70;;;27.00;54.90;;;;;;221199;1262;24363;-59
2022/08/03 17:11:52;;;;;;;2.30;1.80;;;27.00;54.80;;;;;;221132;1262;25499;-60
2022/08/03 17:16:59;;;;;;;2.20;1.80;;;27.00;54.90;;;;;;221407;1263;24256;-59
2022/08/03 17:22:09;;;;;;;2.60;2.00;;;27.00;54.80;;;;;;221221;1262;24270;-59
2022/08/03 17:27:32;;;;;;;2.10;1.70;;;27.00;55.10;;;;;;221297;1265;24208;-62
2022/08/03 17:32:54;;;;;;;2.40;1.80;;;27.00;55.00;;;;;;221087;1264;22563;-57
2022/08/03 17:37:59;;;;;;;3.00;2.20;;;27.00;54.80;;;;;;221181;1262;24286;-61
2022/08/03 17:43:05;;;;;;;2.30;1.90;;;27.00;55.00;;;;;;221277;1262;22537;-57
2022/08/03 17:48:29;;;;;;;2.50;1.70;;;27.00;55.20;;;;;;221341;1265;25361;-62
2022/08/03 17:53:37;;;;;;;2.20;1.80;;;27.00;55.80;;;;;;221043;1265;22547;-60
2022/08/03 17:58:58;;;;;;;2.30;1.90;;;27.00;55.30;;;;;;221326;1262;22563;-59
2022/08/03 18:04:04;;;;;;;2.30;1.90;;;27.00;55.10;;;;;;221124;1265;22640;-59
2022/08/03 18:09:15;;;;;;;2.70;2.20;;;27.00;55.70;;;;;;221340;1265;24239;-60
2022/08/03 18:14:51;;;;;;;2.10;1.80;;;27.00;55.10;;;;;;221402;1262;22688;-60
2022/08/03 18:20:05;;;;;;;2.20;1.80;;;27.00;55.10;;;;;;221489;1262;22553;-59
2022/08/03 18:25:28;;;;;;;2.90;2.30;;;27.00;55.10;;;;;;221545;1262;22523;-61
2022/08/03 18:30:51;;;;;;;2.40;1.90;;;27.00;55.10;;;;;;221478;1262;22687;-60
2022/08/03 18:35:57;;;;;;;2.20;1.80;;;26.90;54.90;;;;;;221205;1265;22550;-59
2022/08/03 18:41:00;;;;;;;2.40;1.80;;;27.00;55.00;;;;;;221453;1265;22546;-59
2022/08/03 18:46:06;;;;;;;2.30;2.00;;;27.00;55.00;;;;;;221299;1262;22551;-58
2022/08/03 18:51:28;;;;;;;2.50;1.90;;;27.00;55.10;;;;;;221337;1262;23023;-59
2022/08/03 18:56:52;;;;;;;2.20;2.00;;;26.90;55.00;;;;;;221087;1262;25367;-60
2022/08/03 19:02:17;;;;;;;2.80;1.90;;;27.00;54.60;;;;;;221243;1262;25245;-61
2022/08/03 19:07:29;;;;;;;2.30;1.90;;;27.00;55.00;;;;;;221306;1262;22559;-55
2022/08/03 19:12:53;;;;;;;2.50;1.90;;;26.90;55.00;;;;;;221265;1263;25362;-55
2022/08/03 19:17:57;;;;;;;2.70;2.30;;;26.90;54.90;;;;;;221405;1262;22537;-55
2022/08/03 19:23:00;;;;;;;2.10;1.70;;;26.90;55.00;;;;;;221224;1262;24271;-55
2022/08/03 19:28:04;;;;;;;2.60;2.00;;;26.90;55.00;;;;;;221093;1262;22600;-55
2022/08/03 19:33:12;;;;;;;6.90;2.80;;;26.90;55.10;;;;;;221308;1262;25215;-55
2022/08/03 19:38:18;;;;;;;4.10;1.90;;;26.90;55.10;;;;;;221239;1265;24306;-55
2022/08/03 19:43:46;;;;;;;4.10;2.20;;;26.90;55.10;;;;;;221282;1262;24468;-56
2022/08/03 19:49:04;;;;;;;2.80;1.90;;;26.90;55.10;;;;;;221268;1265;22533;-57
2022/08/03 19:54:24;;;;;;;2.90;1.90;;;26.90;55.10;;;;;;221418;1262;22707;-58
2022/08/03 19:59:38;;;;;;;2.50;1.90;;;26.90;55.10;;;;;;221360;1262;22544;-57
2022/08/03 20:04:56;;;;;;;4.90;2.30;;;26.90;55.30;;;;;;221102;1265;22569;-56
2022/08/03 20:10:04;;;;;;;3.00;2.00;;;26.90;55.20;;;;;;221479;1265;24234;-57
2022/08/03 20:15:09;;;;;;;2.60;2.10;;;26.90;55.20;;;;;;221150;1262;26468;-55
2022/08/03 20:20:12;;;;;;;3.30;2.10;;;26.90;55.20;;;;;;221502;1265;22528;-56
2022/08/03 20:25:21;;;;;;;3.10;2.20;;;26.80;55.10;;;;;;221164;1265;24285;-54
2022/08/03 20:30:23;;;;;;;2.60;2.20;;;26.90;55.40;;;;;;221499;1263;22682;-56
2022/08/03 20:35:31;;;;;;;5.10;2.00;;;26.80;55.20;;;;;;221152;1262;25366;-54
2022/08/03 20:40:35;;;;;;;2.70;2.30;;;26.90;55.60;;;;;;221400;1265;22614;-56
2022/08/03 20:45:43;;;;;;;2.60;2.00;;;26.90;55.30;;;;;;221289;1265;24240;-54
2022/08/03 20:51:06;;;;;;;2.50;2.00;;;26.80;55.20;;;;;;221298;1265;25359;-54
2022/08/03 20:56:24;;;;;;;2.70;2.40;;;26.80;55.50;;;;;;221228;1265;22528;-54
2022/08/03 21:01:27;;;;;;;3.80;2.10;;;26.90;55.20;;;;;;221171;1265;22549;-56
2022/08/03 21:06:44;;;;;;;3.00;2.20;;;26.90;55.20;;;;;;221447;1265;22528;-56
2022/08/03 21:12:12;;;;;;;2.90;2.30;;;26.80;55.20;;;;;;221438;1265;24267;-56
2022/08/03 21:17:25;;;;;;;3.10;2.30;;;26.80;55.20;;;;;;221509;1265;22652;-54
2022/08/03 21:22:49;;;;;;;2.60;2.30;;;26.80;55.20;;;;;;221443;1262;23062;-55
2022/08/03 21:27:55;;;;;;;2.40;2.20;;;26.80;55.20;;;;;;221459;1262;22546;-57
2022/08/03 21:33:00;;;;;;;2.50;2.00;;;26.80;55.90;;;;;;221531;1262;25229;-55
2022/08/03 21:38:18;;;;;;;3.20;2.10;;;26.80;55.30;;;;;;221721;1262;25226;-54
2022/08/03 21:43:25;;;;;;;2.70;2.30;;;26.80;55.30;;;;;;221319;1261;22558;-55
2022/08/03 21:48:40;;;;;;;3.10;2.60;;;26.80;55.40;;;;;;221564;1261;24189;-57
2022/08/03 21:53:52;;;;;;;2.40;2.20;;;26.70;55.60;;;;;;221517;1262;22529;-56
2022/08/03 21:59:14;;;;;;;3.70;2.60;;;26.80;55.50;;;;;;221435;1263;24283;-55
2022/08/03 22:04:21;;;;;;;2.90;2.40;;;26.70;55.40;;;;;;221398;1262;25357;-56
2022/08/03 22:09:46;;;;;;;3.90;2.70;;;26.70;55.30;;;;;;221473;1262;25709;-59
2022/08/03 22:14:55;;;;;;;2.90;2.60;;;26.70;55.40;;;;;;221464;1265;22687;-56
2022/08/03 22:20:08;;;;;;;2.70;2.40;;;26.70;55.50;;;;;;221631;1263;22525;-54
2022/08/03 22:25:14;;;;;;;3.80;2.30;;;26.70;55.40;;;;;;221364;1261;22569;-56
2022/08/03 22:30:18;;;;;;;3.30;2.90;;;26.70;55.50;;;;;;221734;1261;25338;-56
2022/08/03 22:35:28;;;;;;;3.10;2.70;;;26.70;55.80;;;;;;221692;1262;22535;-53
2022/08/03 22:40:36;;;;;;;4.30;2.60;;;26.70;55.50;;;;;;221547;1265;22549;-56
2022/08/03 22:45:45;;;;;;;4.20;3.20;;;26.70;55.50;;;;;;221447;1262;24517;-53
2022/08/03 22:51:10;;;;;;;3.90;2.60;;;26.70;55.50;;;;;;221545;1262;22539;-54
2022/08/03 22:56:17;;;;;;;2.90;2.40;;;26.60;55.50;;;;;;221605;1262;23051;-57
2022/08/03 23:01:24;;;;;;;3.30;3.00;;;26.60;55.40;;;;;;221662;1262;22593;-55
2022/08/03 23:06:37;;;;;;;3.30;2.80;;;26.70;55.50;;;;;;221637;1262;24277;-56
2022/08/03 23:11:47;;;;;;;3.30;2.60;;;26.60;55.50;;;;;;221534;1265;24254;-55
2022/08/03 23:16:53;;;;;;;3.60;2.80;;;26.60;55.50;;;;;;221298;1265;22615;-56
2022/08/03 23:21:57;;;;;;;4.60;2.80;;;26.60;55.50;;;;;;221255;1265;24286;-56
2022/08/03 23:27:08;;;;;;;3.50;2.90;;;26.60;55.50;;;;;;221152;1265;25521;-53
2022/08/03 23:32:25;;;;;;;3.30;2.60;;;26.60;55.60;;;;;;221299;1265;22550;-64
2022/08/03 23:37:32;;;;;;;3.60;2.80;;;26.60;55.60;;;;;;221380;1265;25228;-56
2022/08/03 23:42:35;;;;;;;3.20;2.80;;;26.60;55.50;;;;;;221211;1265;22550;-55
2022/08/03 23:47:38;;;;;;;5.60;3.10;;;26.60;55.70;;;;;;221209;1267;22618;-57
2022/08/03 23:52:58;;;;;;;3.50;2.70;;;26.60;55.80;;;;;;221181;1267;24283;-58
2022/08/03 23:58:09;;;;;;;3.30;2.80;;;26.50;55.60;;;;;;221123;1265;22541;-57
